sensor_id;sensor_type;location;lat;lon;timestamp;temperature;humidity
21331;DHT22;10824;51.632;4.950;2022-12-18T00:01:22;-3.10;99.90
21331;DHT22;10824;51.632;4.950;2022-12-18T00:03:50;-3.10;99.90
21331;DHT22;10824;51.632;4.950;2022-12-18T00:06:19;-3.10;99.90
21331;DHT22;10824;51.632;4.950;2022-12-18T00:08:46;-3.20;99.90
21331;DHT22;10824;51.632;4.950;2022-12-18T00:11:20;-3.20;99.90
21331;DHT22;10824;51.632;4.950;2022-12-18T00:13:48;-3.20;99.90
21331;DHT22;10824;51.632;4.950;2022-12-18T00:16:18;-3.30;99.90
21331;DHT22;10824;51.632;4.950;2022-12-18T00:18:51;-3.30;99.90
21331;DHT22;10824;51.632;4.950;2022-12-18T00:21:19;-3.20;99.90
21331;DHT22;10824;51.632;4.950;2022-12-18T00:23:48;-3.30;99.90
21331;DHT22;10824;51.632;4.950;2022-12-18T00:26:22;-3.30;99.90
21331;DHT22;10824;51.632;4.950;2022-12-18T00:28:53;-3.20;99.90
21331;DHT22;10824;51.632;4.950;2022-12-18T00:31:23;-3.40;99.90
21331;DHT22;10824;51.632;4.950;2022-12-18T00:33:55;-3.40;99.90
21331;DHT22;10824;51.632;4.950;2022-12-18T00:36:25;-3.40;99.90
21331;DHT22;10824;51.632;4.950;2022-12-18T00:38:57;-3.30;99.90
21331;DHT22;10824;51.632;4.950;2022-12-18T00:41:24;-3.40;99.90
21331;DHT22;10824;51.632;4.950;2022-12-18T00:44:12;-3.40;99.90
21331;DHT22;10824;51.632;4.950;2022-12-18T00:46:40;-3.30;99.90
21331;DHT22;10824;51.632;4.950;2022-12-18T00:49:08;-3.40;99.90
21331;DHT22;10824;51.632;4.950;2022-12-18T00:51:35;-3.60;99.90
21331;DHT22;10824;51.632;4.950;2022-12-18T00:54:02;-3.60;99.90
21331;DHT22;10824;51.632;4.950;2022-12-18T00:56:30;-3.50;99.90
21331;DHT22;10824;51.632;4.950;2022-12-18T00:58:57;-3.60;99.90
21331;DHT22;10824;51.632;4.950;2022-12-18T01:01:24;-3.60;99.90
21331;DHT22;10824;51.632;4.950;2022-12-18T01:03:51;-3.60;99.90
21331;DHT22;10824;51.632;4.950;2022-12-18T01:06:19;-3.60;99.90
21331;DHT22;10824;51.632;4.950;2022-12-18T01:08:46;-3.60;99.90
21331;DHT22;10824;51.632;4.950;2022-12-18T01:11:16;-3.60;99.90
21331;DHT22;10824;51.632;4.950;2022-12-18T01:13:44;-3.60;99.90
21331;DHT22;10824;51.632;4.950;2022-12-18T01:16:12;-3.60;99.90
21331;DHT22;10824;51.632;4.950;2022-12-18T01:18:39;-3.60;99.90
21331;DHT22;10824;51.632;4.950;2022-12-18T01:21:08;-3.60;99.90
21331;DHT22;10824;51.632;4.950;2022-12-18T01:23:36;-3.70;99.90
21331;DHT22;10824;51.632;4.950;2022-12-18T01:26:07;-3.90;99.90
21331;DHT22;10824;51.632;4.950;2022-12-18T01:28:35;-3.80;99.90
21331;DHT22;10824;51.632;4.950;2022-12-18T01:31:19;-3.80;99.90
21331;DHT22;10824;51.632;4.950;2022-12-18T01:33:46;-3.80;99.90
21331;DHT22;10824;51.632;4.950;2022-12-18T01:36:33;-3.90;99.90
21331;DHT22;10824;51.632;4.950;2022-12-18T01:39:10;-3.90;99.90
21331;DHT22;10824;51.632;4.950;2022-12-18T01:41:41;-4.00;99.90
21331;DHT22;10824;51.632;4.950;2022-12-18T01:52:38;-4.10;99.90
21331;DHT22;10824;51.632;4.950;2022-12-18T01:55:08;-4.10;99.90
21331;DHT22;10824;51.632;4.950;2022-12-18T01:57:36;-4.10;99.90
21331;DHT22;10824;51.632;4.950;2022-12-18T02:00:16;-4.20;99.90
21331;DHT22;10824;51.632;4.950;2022-12-18T02:02:45;-4.20;99.90
21331;DHT22;10824;51.632;4.950;2022-12-18T02:05:16;-4.20;99.90
21331;DHT22;10824;51.632;4.950;2022-12-18T02:13:50;-4.20;99.90
21331;DHT22;10824;51.632;4.950;2022-12-18T02:16:34;-4.20;99.90
21331;DHT22;10824;51.632;4.950;2022-12-18T02:27:28;-4.30;99.90
21331;DHT22;10824;51.632;4.950;2022-12-18T02:29:57;-4.30;99.90
21331;DHT22;10824;51.632;4.950;2022-12-18T02:32:37;-4.30;99.90
21331;DHT22;10824;51.632;4.950;2022-12-18T02:35:08;-4.30;99.90
21331;DHT22;10824;51.632;4.950;2022-12-18T02:37:37;-4.30;99.90
21331;DHT22;10824;51.632;4.950;2022-12-18T02:40:06;-4.30;99.90
21331;DHT22;10824;51.632;4.950;2022-12-18T02:42:36;-4.30;99.90
21331;DHT22;10824;51.632;4.950;2022-12-18T02:45:06;-4.30;99.90
21331;DHT22;10824;51.632;4.950;2022-12-18T02:47:39;-4.30;99.90
21331;DHT22;10824;51.632;4.950;2022-12-18T02:50:37;-4.40;99.90
21331;DHT22;10824;51.632;4.950;2022-12-18T03:01:34;-4.40;99.90
21331;DHT22;10824;51.632;4.950;2022-12-18T03:04:28;-4.50;99.90
21331;DHT22;10824;51.632;4.950;2022-12-18T03:06:59;-4.50;99.90
21331;DHT22;10824;51.632;4.950;2022-12-18T03:09:32;-4.50;99.90
21331;DHT22;10824;51.632;4.950;2022-12-18T03:15:05;-4.50;99.90
21331;DHT22;10824;51.632;4.950;2022-12-18T03:17:35;-4.40;99.90
21331;DHT22;10824;51.632;4.950;2022-12-18T03:20:07;-4.50;99.90
21331;DHT22;10824;51.632;4.950;2022-12-18T03:22:38;-4.60;99.90
21331;DHT22;10824;51.632;4.950;2022-12-18T03:25:09;-4.50;99.90
21331;DHT22;10824;51.632;4.950;2022-12-18T03:27:42;-4.60;99.90
21331;DHT22;10824;51.632;4.950;2022-12-18T03:30:13;-4.60;99.90
21331;DHT22;10824;51.632;4.950;2022-12-18T03:32:46;-4.60;99.90
21331;DHT22;10824;51.632;4.950;2022-12-18T03:35:20;-4.60;99.90
21331;DHT22;10824;51.632;4.950;2022-12-18T03:37:48;-4.70;99.90
21331;DHT22;10824;51.632;4.950;2022-12-18T03:40:16;-4.70;99.90
21331;DHT22;10824;51.632;4.950;2022-12-18T03:42:51;-4.70;99.90
21331;DHT22;10824;51.632;4.950;2022-12-18T03:45:27;-4.70;99.90
21331;DHT22;10824;51.632;4.950;2022-12-18T03:48:03;-4.80;99.90
21331;DHT22;10824;51.632;4.950;2022-12-18T03:51:07;-4.70;99.90
21331;DHT22;10824;51.632;4.950;2022-12-18T03:56:16;-4.80;99.90
21331;DHT22;10824;51.632;4.950;2022-12-18T03:58:44;-4.80;99.90
21331;DHT22;10824;51.632;4.950;2022-12-18T04:01:17;-4.80;99.90
21331;DHT22;10824;51.632;4.950;2022-12-18T04:03:46;-4.90;99.90
21331;DHT22;10824;51.632;4.950;2022-12-18T04:06:18;-4.80;99.90
21331;DHT22;10824;51.632;4.950;2022-12-18T04:08:46;-4.90;99.90
21331;DHT22;10824;51.632;4.950;2022-12-18T04:11:17;-4.90;99.90
21331;DHT22;10824;51.632;4.950;2022-12-18T04:13:46;-4.90;99.90
21331;DHT22;10824;51.632;4.950;2022-12-18T04:16:21;-4.90;99.90
21331;DHT22;10824;51.632;4.950;2022-12-18T04:18:52;-4.90;99.90
21331;DHT22;10824;51.632;4.950;2022-12-18T04:21:21;-4.90;99.90
21331;DHT22;10824;51.632;4.950;2022-12-18T04:23:49;-5.00;99.90
21331;DHT22;10824;51.632;4.950;2022-12-18T04:26:20;-5.00;99.90
21331;DHT22;10824;51.632;4.950;2022-12-18T04:28:59;-4.90;99.90
21331;DHT22;10824;51.632;4.950;2022-12-18T04:31:27;-4.90;99.90
21331;DHT22;10824;51.632;4.950;2022-12-18T04:33:55;-4.90;99.90
21331;DHT22;10824;51.632;4.950;2022-12-18T04:36:22;-4.90;99.90
21331;DHT22;10824;51.632;4.950;2022-12-18T04:38:49;-5.00;99.90
21331;DHT22;10824;51.632;4.950;2022-12-18T04:41:17;-5.00;99.90
21331;DHT22;10824;51.632;4.950;2022-12-18T04:43:47;-5.10;99.90
21331;DHT22;10824;51.632;4.950;2022-12-18T04:46:14;-5.10;99.90
21331;DHT22;10824;51.632;4.950;2022-12-18T04:48:41;-5.10;99.90
21331;DHT22;10824;51.632;4.950;2022-12-18T04:51:08;-5.10;99.90
21331;DHT22;10824;51.632;4.950;2022-12-18T04:53:35;-5.00;99.90
21331;DHT22;10824;51.632;4.950;2022-12-18T04:56:07;-5.00;99.90
21331;DHT22;10824;51.632;4.950;2022-12-18T04:58:36;-5.00;99.90
21331;DHT22;10824;51.632;4.950;2022-12-18T05:01:03;-5.10;99.90
21331;DHT22;10824;51.632;4.950;2022-12-18T05:03:31;-5.10;99.90
21331;DHT22;10824;51.632;4.950;2022-12-18T05:05:58;-5.10;99.90
21331;DHT22;10824;51.632;4.950;2022-12-18T05:08:25;-5.10;99.90
21331;DHT22;10824;51.632;4.950;2022-12-18T05:11:02;-5.20;99.90
21331;DHT22;10824;51.632;4.950;2022-12-18T05:13:31;-5.20;99.90
21331;DHT22;10824;51.632;4.950;2022-12-18T05:15:59;-5.10;99.90
21331;DHT22;10824;51.632;4.950;2022-12-18T05:18:26;-5.10;99.90
21331;DHT22;10824;51.632;4.950;2022-12-18T05:20:54;-5.10;99.90
21331;DHT22;10824;51.632;4.950;2022-12-18T05:23:22;-5.20;99.90
21331;DHT22;10824;51.632;4.950;2022-12-18T05:25:54;-5.20;99.90
21331;DHT22;10824;51.632;4.950;2022-12-18T05:28:23;-5.30;99.90
21331;DHT22;10824;51.632;4.950;2022-12-18T05:30:51;-5.30;99.90
21331;DHT22;10824;51.632;4.950;2022-12-18T05:33:19;-5.30;99.90
21331;DHT22;10824;51.632;4.950;2022-12-18T05:36:07;-5.30;99.90
21331;DHT22;10824;51.632;4.950;2022-12-18T05:38:36;-5.30;99.90
21331;DHT22;10824;51.632;4.950;2022-12-18T05:41:03;-5.20;99.90
21331;DHT22;10824;51.632;4.950;2022-12-18T05:43:30;-5.20;99.90
21331;DHT22;10824;51.632;4.950;2022-12-18T05:45:57;-5.20;99.90
21331;DHT22;10824;51.632;4.950;2022-12-18T05:48:24;-5.20;99.90
21331;DHT22;10824;51.632;4.950;2022-12-18T05:50:51;-5.20;99.90
21331;DHT22;10824;51.632;4.950;2022-12-18T05:53:20;-5.20;99.90
21331;DHT22;10824;51.632;4.950;2022-12-18T05:55:47;-5.20;99.90
21331;DHT22;10824;51.632;4.950;2022-12-18T05:58:14;-5.20;99.90
21331;DHT22;10824;51.632;4.950;2022-12-18T06:00:44;-5.20;99.90
21331;DHT22;10824;51.632;4.950;2022-12-18T06:03:12;-5.20;99.90
21331;DHT22;10824;51.632;4.950;2022-12-18T06:05:42;-5.20;99.90
21331;DHT22;10824;51.632;4.950;2022-12-18T06:08:09;-5.20;99.90
21331;DHT22;10824;51.632;4.950;2022-12-18T06:10:37;-5.20;99.90
21331;DHT22;10824;51.632;4.950;2022-12-18T06:13:05;-5.20;99.90
21331;DHT22;10824;51.632;4.950;2022-12-18T06:15:32;-5.30;99.90
21331;DHT22;10824;51.632;4.950;2022-12-18T06:18:00;-5.20;99.90
21331;DHT22;10824;51.632;4.950;2022-12-18T06:20:28;-5.30;99.90
21331;DHT22;10824;51.632;4.950;2022-12-18T06:23:00;-5.30;99.90
21331;DHT22;10824;51.632;4.950;2022-12-18T06:25:27;-5.20;99.90
21331;DHT22;10824;51.632;4.950;2022-12-18T06:27:54;-5.30;99.90
21331;DHT22;10824;51.632;4.950;2022-12-18T06:30:21;-5.30;99.90
21331;DHT22;10824;51.632;4.950;2022-12-18T06:32:49;-5.30;99.90
21331;DHT22;10824;51.632;4.950;2022-12-18T06:35:22;-5.40;99.90
21331;DHT22;10824;51.632;4.950;2022-12-18T06:37:48;-5.30;99.90
21331;DHT22;10824;51.632;4.950;2022-12-18T06:40:16;-5.30;99.90
21331;DHT22;10824;51.632;4.950;2022-12-18T06:42:43;-5.40;99.90
21331;DHT22;10824;51.632;4.950;2022-12-18T06:45:10;-5.30;99.90
21331;DHT22;10824;51.632;4.950;2022-12-18T06:47:38;-5.30;99.90
21331;DHT22;10824;51.632;4.950;2022-12-18T06:50:05;-5.30;99.90
21331;DHT22;10824;51.632;4.950;2022-12-18T06:52:33;-5.20;99.90
21331;DHT22;10824;51.632;4.950;2022-12-18T06:55:00;-5.30;99.90
21331;DHT22;10824;51.632;4.950;2022-12-18T06:57:27;-5.20;99.90
21331;DHT22;10824;51.632;4.950;2022-12-18T06:59:54;-5.20;99.90
21331;DHT22;10824;51.632;4.950;2022-12-18T07:02:21;-5.20;99.90
21331;DHT22;10824;51.632;4.950;2022-12-18T07:04:49;-5.20;99.90
21331;DHT22;10824;51.632;4.950;2022-12-18T07:07:16;-5.20;99.90
21331;DHT22;10824;51.632;4.950;2022-12-18T07:09:43;-5.30;99.90
21331;DHT22;10824;51.632;4.950;2022-12-18T07:12:10;-5.30;99.90
21331;DHT22;10824;51.632;4.950;2022-12-18T07:14:37;-5.40;99.90
21331;DHT22;10824;51.632;4.950;2022-12-18T07:17:04;-5.40;99.90
21331;DHT22;10824;51.632;4.950;2022-12-18T07:19:32;-5.40;99.90
21331;DHT22;10824;51.632;4.950;2022-12-18T07:21:59;-5.40;99.90
21331;DHT22;10824;51.632;4.950;2022-12-18T07:24:27;-5.40;99.90
21331;DHT22;10824;51.632;4.950;2022-12-18T07:26:57;-5.40;99.90
21331;DHT22;10824;51.632;4.950;2022-12-18T07:29:23;-5.40;99.90
21331;DHT22;10824;51.632;4.950;2022-12-18T07:31:50;-5.40;99.90
21331;DHT22;10824;51.632;4.950;2022-12-18T07:34:17;-5.30;99.90
21331;DHT22;10824;51.632;4.950;2022-12-18T07:36:44;-5.30;99.90
21331;DHT22;10824;51.632;4.950;2022-12-18T07:39:11;-5.30;99.90
21331;DHT22;10824;51.632;4.950;2022-12-18T07:41:39;-5.40;99.90
21331;DHT22;10824;51.632;4.950;2022-12-18T07:44:15;-5.30;99.90
21331;DHT22;10824;51.632;4.950;2022-12-18T07:46:42;-5.30;99.90
21331;DHT22;10824;51.632;4.950;2022-12-18T07:49:08;-5.30;99.90
21331;DHT22;10824;51.632;4.950;2022-12-18T07:51:35;-5.30;99.90
21331;DHT22;10824;51.632;4.950;2022-12-18T07:54:02;-5.20;99.90
21331;DHT22;10824;51.632;4.950;2022-12-18T07:56:29;-5.20;99.90
21331;DHT22;10824;51.632;4.950;2022-12-18T07:58:58;-5.20;99.90
21331;DHT22;10824;51.632;4.950;2022-12-18T08:01:26;-5.20;99.90
21331;DHT22;10824;51.632;4.950;2022-12-18T08:03:53;-5.20;99.90
21331;DHT22;10824;51.632;4.950;2022-12-18T08:06:20;-5.20;99.90
21331;DHT22;10824;51.632;4.950;2022-12-18T08:08:54;-5.10;99.90
21331;DHT22;10824;51.632;4.950;2022-12-18T08:11:22;-5.10;99.90
21331;DHT22;10824;51.632;4.950;2022-12-18T08:13:50;-5.10;99.90
21331;DHT22;10824;51.632;4.950;2022-12-18T08:16:18;-5.10;99.90
21331;DHT22;10824;51.632;4.950;2022-12-18T08:18:46;-5.10;99.90
21331;DHT22;10824;51.632;4.950;2022-12-18T08:21:20;-5.10;99.90
21331;DHT22;10824;51.632;4.950;2022-12-18T08:23:51;-5.10;99.90
21331;DHT22;10824;51.632;4.950;2022-12-18T08:26:19;-5.10;99.90
21331;DHT22;10824;51.632;4.950;2022-12-18T08:28:49;-5.00;99.90
21331;DHT22;10824;51.632;4.950;2022-12-18T08:31:17;-5.00;99.90
21331;DHT22;10824;51.632;4.950;2022-12-18T08:33:45;-5.00;99.90
21331;DHT22;10824;51.632;4.950;2022-12-18T08:36:12;-5.00;99.90
21331;DHT22;10824;51.632;4.950;2022-12-18T08:38:39;-5.00;99.90
21331;DHT22;10824;51.632;4.950;2022-12-18T08:41:10;-5.00;99.90
21331;DHT22;10824;51.632;4.950;2022-12-18T08:43:38;-4.90;99.90
21331;DHT22;10824;51.632;4.950;2022-12-18T08:46:30;-4.90;99.90
21331;DHT22;10824;51.632;4.950;2022-12-18T08:48:57;-4.80;99.90
21331;DHT22;10824;51.632;4.950;2022-12-18T08:51:24;-4.70;99.90
21331;DHT22;10824;51.632;4.950;2022-12-18T08:53:51;-4.70;99.90
21331;DHT22;10824;51.632;4.950;2022-12-18T08:56:18;-4.60;99.90
21331;DHT22;10824;51.632;4.950;2022-12-18T08:58:45;-4.60;99.90
21331;DHT22;10824;51.632;4.950;2022-12-18T09:01:13;-4.60;99.90
21331;DHT22;10824;51.632;4.950;2022-12-18T09:03:48;-4.50;99.90
21331;DHT22;10824;51.632;4.950;2022-12-18T09:06:19;-4.50;99.90
21331;DHT22;10824;51.632;4.950;2022-12-18T09:08:46;-4.50;99.90
21331;DHT22;10824;51.632;4.950;2022-12-18T09:11:20;-4.50;99.90
21331;DHT22;10824;51.632;4.950;2022-12-18T09:13:47;-4.40;99.90
21331;DHT22;10824;51.632;4.950;2022-12-18T09:16:15;-4.40;99.90
21331;DHT22;10824;51.632;4.950;2022-12-18T09:18:42;-4.30;99.90
21331;DHT22;10824;51.632;4.950;2022-12-18T09:21:11;-4.30;99.90
21331;DHT22;10824;51.632;4.950;2022-12-18T09:23:38;-4.30;99.90
21331;DHT22;10824;51.632;4.950;2022-12-18T09:26:05;-4.20;99.90
21331;DHT22;10824;51.632;4.950;2022-12-18T09:28:33;-4.20;99.90
21331;DHT22;10824;51.632;4.950;2022-12-18T09:31:04;-4.20;99.90
21331;DHT22;10824;51.632;4.950;2022-12-18T09:33:37;-4.20;99.90
21331;DHT22;10824;51.632;4.950;2022-12-18T09:36:06;-4.20;99.90
21331;DHT22;10824;51.632;4.950;2022-12-18T09:38:35;-4.10;99.90
21331;DHT22;10824;51.632;4.950;2022-12-18T09:41:35;-4.10;99.90
21331;DHT22;10824;51.632;4.950;2022-12-18T09:44:16;-4.10;99.90
21331;DHT22;10824;51.632;4.950;2022-12-18T09:46:51;-4.00;99.90
21331;DHT22;10824;51.632;4.950;2022-12-18T09:49:23;-3.90;99.90
21331;DHT22;10824;51.632;4.950;2022-12-18T09:52:04;-3.80;99.90
21331;DHT22;10824;51.632;4.950;2022-12-18T09:54:39;-3.80;99.90
21331;DHT22;10824;51.632;4.950;2022-12-18T09:57:17;-3.60;99.90
21331;DHT22;10824;51.632;4.950;2022-12-18T09:59:55;-3.60;99.90
21331;DHT22;10824;51.632;4.950;2022-12-18T10:02:25;-3.60;99.90
21331;DHT22;10824;51.632;4.950;2022-12-18T10:05:06;-3.50;99.90
21331;DHT22;10824;51.632;4.950;2022-12-18T10:10:42;-3.40;99.90
21331;DHT22;10824;51.632;4.950;2022-12-18T10:21:39;-3.20;99.90
21331;DHT22;10824;51.632;4.950;2022-12-18T10:26:48;-3.20;99.90
21331;DHT22;10824;51.632;4.950;2022-12-18T10:29:16;-3.20;99.90
21331;DHT22;10824;51.632;4.950;2022-12-18T10:31:43;-3.20;99.90
21331;DHT22;10824;51.632;4.950;2022-12-18T10:34:12;-3.10;99.90
21331;DHT22;10824;51.632;4.950;2022-12-18T10:36:42;-3.10;99.90
21331;DHT22;10824;51.632;4.950;2022-12-18T10:39:23;-3.00;99.90
21331;DHT22;10824;51.632;4.950;2022-12-18T10:41:51;-3.00;99.90
21331;DHT22;10824;51.632;4.950;2022-12-18T10:44:21;-3.00;99.90
21331;DHT22;10824;51.632;4.950;2022-12-18T10:46:50;-2.90;99.90
21331;DHT22;10824;51.632;4.950;2022-12-18T10:49:42;-3.00;99.90
21331;DHT22;10824;51.632;4.950;2022-12-18T10:52:20;-2.90;99.90
21331;DHT22;10824;51.632;4.950;2022-12-18T10:55:03;-2.90;99.90
21331;DHT22;10824;51.632;4.950;2022-12-18T11:00:28;-2.80;99.90
21331;DHT22;10824;51.632;4.950;2022-12-18T11:02:56;-2.80;99.90
21331;DHT22;10824;51.632;4.950;2022-12-18T11:05:32;-2.70;99.90
21331;DHT22;10824;51.632;4.950;2022-12-18T11:08:00;-2.70;99.90
21331;DHT22;10824;51.632;4.950;2022-12-18T11:10:38;-2.70;99.90
21331;DHT22;10824;51.632;4.950;2022-12-18T11:13:24;-2.60;99.90
21331;DHT22;10824;51.632;4.950;2022-12-18T11:15:52;-2.50;99.90
21331;DHT22;10824;51.632;4.950;2022-12-18T11:18:27;-2.50;99.90
21331;DHT22;10824;51.632;4.950;2022-12-18T11:20:59;-2.50;99.90
21331;DHT22;10824;51.632;4.950;2022-12-18T11:23:28;-2.50;99.90
21331;DHT22;10824;51.632;4.950;2022-12-18T11:26:01;-2.40;99.90
21331;DHT22;10824;51.632;4.950;2022-12-18T11:31:28;-2.30;99.90
21331;DHT22;10824;51.632;4.950;2022-12-18T11:34:00;-2.30;99.90
21331;DHT22;10824;51.632;4.950;2022-12-18T11:36:48;-2.30;99.90
21331;DHT22;10824;51.632;4.950;2022-12-18T11:39:31;-2.20;99.90
21331;DHT22;10824;51.632;4.950;2022-12-18T11:42:05;-2.20;99.90
21331;DHT22;10824;51.632;4.950;2022-12-18T11:47:35;-2.10;99.90
21331;DHT22;10824;51.632;4.950;2022-12-18T11:50:24;-2.10;99.90
21331;DHT22;10824;51.632;4.950;2022-12-18T11:52:51;-2.10;99.90
21331;DHT22;10824;51.632;4.950;2022-12-18T12:04:24;-2.00;99.90
21331;DHT22;10824;51.632;4.950;2022-12-18T12:07:18;-1.90;99.90
21331;DHT22;10824;51.632;4.950;2022-12-18T12:13:15;-1.90;99.90
21331;DHT22;10824;51.632;4.950;2022-12-18T12:16:04;-1.80;99.90
21331;DHT22;10824;51.632;4.950;2022-12-18T12:24:24;-1.80;99.90
21331;DHT22;10824;51.632;4.950;2022-12-18T12:27:14;-1.70;99.90
21331;DHT22;10824;51.632;4.950;2022-12-18T12:40:19;-1.60;99.90
21331;DHT22;10824;51.632;4.950;2022-12-18T12:46:06;-1.50;99.90
21331;DHT22;10824;51.632;4.950;2022-12-18T12:51:36;-1.50;99.90
21331;DHT22;10824;51.632;4.950;2022-12-18T12:54:11;-1.50;99.90
21331;DHT22;10824;51.632;4.950;2022-12-18T12:59:57;-1.40;99.90
21331;DHT22;10824;51.632;4.950;2022-12-18T13:02:52;-1.40;99.90
21331;DHT22;10824;51.632;4.950;2022-12-18T13:08:29;-1.40;99.90
21331;DHT22;10824;51.632;4.950;2022-12-18T13:11:00;-1.30;99.90
21331;DHT22;10824;51.632;4.950;2022-12-18T13:13:53;-1.30;99.90
21331;DHT22;10824;51.632;4.950;2022-12-18T13:16:25;-1.30;99.90
21331;DHT22;10824;51.632;4.950;2022-12-18T13:18:55;-1.30;99.90
21331;DHT22;10824;51.632;4.950;2022-12-18T13:21:32;-1.30;99.90
21331;DHT22;10824;51.632;4.950;2022-12-18T13:24:22;-1.30;99.90
21331;DHT22;10824;51.632;4.950;2022-12-18T13:26:51;-1.30;99.90
21331;DHT22;10824;51.632;4.950;2022-12-18T13:29:47;-1.30;99.90
21331;DHT22;10824;51.632;4.950;2022-12-18T13:32:25;-1.20;99.90
21331;DHT22;10824;51.632;4.950;2022-12-18T13:37:52;-1.20;99.90
21331;DHT22;10824;51.632;4.950;2022-12-18T13:43:22;-1.20;99.90
21331;DHT22;10824;51.632;4.950;2022-12-18T13:48:28;-1.20;99.90
21331;DHT22;10824;51.632;4.950;2022-12-18T13:51:05;-1.10;99.90
21331;DHT22;10824;51.632;4.950;2022-12-18T13:53:46;-1.10;99.90
21331;DHT22;10824;51.632;4.950;2022-12-18T13:56:21;-1.10;99.90
21331;DHT22;10824;51.632;4.950;2022-12-18T14:01:35;-1.10;99.90
21331;DHT22;10824;51.632;4.950;2022-12-18T14:04:30;-1.10;99.90
21331;DHT22;10824;51.632;4.950;2022-12-18T14:07:28;-1.10;99.90
21331;DHT22;10824;51.632;4.950;2022-12-18T14:10:13;-1.10;99.90
21331;DHT22;10824;51.632;4.950;2022-12-18T14:13:08;-1.10;99.90
21331;DHT22;10824;51.632;4.950;2022-12-18T14:20:47;-1.00;99.90
21331;DHT22;10824;51.632;4.950;2022-12-18T14:23:40;-1.00;99.90
21331;DHT22;10824;51.632;4.950;2022-12-18T14:26:27;-1.00;99.90
21331;DHT22;10824;51.632;4.950;2022-12-18T14:28:58;-1.00;99.90
21331;DHT22;10824;51.632;4.950;2022-12-18T14:31:29;-1.00;99.90
21331;DHT22;10824;51.632;4.950;2022-12-18T14:33:57;-1.00;99.90
21331;DHT22;10824;51.632;4.950;2022-12-18T14:36:28;-0.90;99.90
21331;DHT22;10824;51.632;4.950;2022-12-18T14:38:57;-0.90;99.90
21331;DHT22;10824;51.632;4.950;2022-12-18T14:41:25;-0.80;99.90
21331;DHT22;10824;51.632;4.950;2022-12-18T14:43:53;-0.80;99.90
21331;DHT22;10824;51.632;4.950;2022-12-18T14:46:38;-0.80;99.90
21331;DHT22;10824;51.632;4.950;2022-12-18T14:49:36;-0.80;99.90
21331;DHT22;10824;51.632;4.950;2022-12-18T14:52:06;-0.80;99.90
21331;DHT22;10824;51.632;4.950;2022-12-18T14:54:40;-0.80;99.90
21331;DHT22;10824;51.632;4.950;2022-12-18T14:57:29;-0.80;99.90
21331;DHT22;10824;51.632;4.950;2022-12-18T15:00:07;-0.80;99.90
21331;DHT22;10824;51.632;4.950;2022-12-18T15:02:41;-0.70;99.90
21331;DHT22;10824;51.632;4.950;2022-12-18T15:10:21;-0.70;99.90
21331;DHT22;10824;51.632;4.950;2022-12-18T15:23:15;-0.70;99.60
21331;DHT22;10824;51.632;4.950;2022-12-18T15:25:43;-0.70;99.60
21331;DHT22;10824;51.632;4.950;2022-12-18T15:28:21;-0.60;99.40
21331;DHT22;10824;51.632;4.950;2022-12-18T15:31:03;-0.60;99.50
21331;DHT22;10824;51.632;4.950;2022-12-18T15:33:33;-0.70;99.60
21331;DHT22;10824;51.632;4.950;2022-12-18T15:36:04;-0.60;99.90
21331;DHT22;10824;51.632;4.950;2022-12-18T15:38:31;-0.60;99.60
21331;DHT22;10824;51.632;4.950;2022-12-18T15:40:59;-0.60;99.60
21331;DHT22;10824;51.632;4.950;2022-12-18T15:43:27;-0.50;99.50
21331;DHT22;10824;51.632;4.950;2022-12-18T15:48:29;-0.60;99.70
21331;DHT22;10824;51.632;4.950;2022-12-18T15:50:57;-0.60;99.60
21331;DHT22;10824;51.632;4.950;2022-12-18T15:53:29;-0.50;99.10
21331;DHT22;10824;51.632;4.950;2022-12-18T15:55:57;-0.50;98.60
21331;DHT22;10824;51.632;4.950;2022-12-18T15:58:42;-0.50;99.20
21331;DHT22;10824;51.632;4.950;2022-12-18T16:01:12;-0.50;99.60
21331;DHT22;10824;51.632;4.950;2022-12-18T16:03:39;-0.40;99.00
21331;DHT22;10824;51.632;4.950;2022-12-18T16:06:08;-0.50;98.50
21331;DHT22;10824;51.632;4.950;2022-12-18T16:08:36;-0.50;99.30
21331;DHT22;10824;51.632;4.950;2022-12-18T16:11:05;-0.50;99.50
21331;DHT22;10824;51.632;4.950;2022-12-18T16:13:35;-0.50;99.50
21331;DHT22;10824;51.632;4.950;2022-12-18T16:16:02;-0.50;99.50
21331;DHT22;10824;51.632;4.950;2022-12-18T16:18:29;-0.40;99.50
21331;DHT22;10824;51.632;4.950;2022-12-18T16:20:56;-0.50;99.80
21331;DHT22;10824;51.632;4.950;2022-12-18T16:23:24;-0.40;99.70
21331;DHT22;10824;51.632;4.950;2022-12-18T16:25:52;-0.40;99.70
21331;DHT22;10824;51.632;4.950;2022-12-18T16:28:19;-0.40;99.90
21331;DHT22;10824;51.632;4.950;2022-12-18T16:30:45;-0.40;99.80
21331;DHT22;10824;51.632;4.950;2022-12-18T16:33:13;-0.40;99.70
21331;DHT22;10824;51.632;4.950;2022-12-18T16:35:40;-0.40;99.70
21331;DHT22;10824;51.632;4.950;2022-12-18T16:38:08;-0.40;99.90
21331;DHT22;10824;51.632;4.950;2022-12-18T16:40:38;-0.40;99.90
21331;DHT22;10824;51.632;4.950;2022-12-18T16:43:25;-0.40;99.90
21331;DHT22;10824;51.632;4.950;2022-12-18T16:45:52;-0.40;99.90
21331;DHT22;10824;51.632;4.950;2022-12-18T16:48:19;-0.40;99.90
21331;DHT22;10824;51.632;4.950;2022-12-18T16:50:46;-0.30;99.90
21331;DHT22;10824;51.632;4.950;2022-12-18T16:53:12;-0.30;99.90
21331;DHT22;10824;51.632;4.950;2022-12-18T16:55:43;-0.30;99.90
21331;DHT22;10824;51.632;4.950;2022-12-18T16:58:10;-0.30;99.90
21331;DHT22;10824;51.632;4.950;2022-12-18T17:00:38;-0.30;99.90
21331;DHT22;10824;51.632;4.950;2022-12-18T17:03:05;-0.30;99.90
21331;DHT22;10824;51.632;4.950;2022-12-18T17:05:33;-0.30;99.90
21331;DHT22;10824;51.632;4.950;2022-12-18T17:08:00;-0.30;99.90
21331;DHT22;10824;51.632;4.950;2022-12-18T17:10:27;-0.30;99.90
21331;DHT22;10824;51.632;4.950;2022-12-18T17:12:54;-0.30;99.90
21331;DHT22;10824;51.632;4.950;2022-12-18T17:15:21;-0.30;99.90
21331;DHT22;10824;51.632;4.950;2022-12-18T17:17:48;-0.30;99.90
21331;DHT22;10824;51.632;4.950;2022-12-18T17:20:15;-0.30;99.90
21331;DHT22;10824;51.632;4.950;2022-12-18T17:22:45;-0.20;99.90
21331;DHT22;10824;51.632;4.950;2022-12-18T17:25:12;-0.20;99.90
21331;DHT22;10824;51.632;4.950;2022-12-18T17:27:39;-0.20;99.90
21331;DHT22;10824;51.632;4.950;2022-12-18T17:30:06;-0.20;99.90
21331;DHT22;10824;51.632;4.950;2022-12-18T17:32:34;-0.20;99.90
21331;DHT22;10824;51.632;4.950;2022-12-18T17:35:01;-0.20;99.90
21331;DHT22;10824;51.632;4.950;2022-12-18T17:37:34;-0.20;99.90
21331;DHT22;10824;51.632;4.950;2022-12-18T17:40:01;-0.20;99.90
21331;DHT22;10824;51.632;4.950;2022-12-18T17:42:28;-0.20;99.90
21331;DHT22;10824;51.632;4.950;2022-12-18T17:44:55;-0.20;99.90
21331;DHT22;10824;51.632;4.950;2022-12-18T17:47:21;-0.20;99.90
21331;DHT22;10824;51.632;4.950;2022-12-18T17:49:49;-0.10;99.90
21331;DHT22;10824;51.632;4.950;2022-12-18T17:52:17;-0.10;99.90
21331;DHT22;10824;51.632;4.950;2022-12-18T17:54:44;0.00;99.90
21331;DHT22;10824;51.632;4.950;2022-12-18T17:57:13;0.00;99.90
21331;DHT22;10824;51.632;4.950;2022-12-18T17:59:40;0.00;99.90
21331;DHT22;10824;51.632;4.950;2022-12-18T18:02:10;0.00;99.90
21331;DHT22;10824;51.632;4.950;2022-12-18T18:04:38;0.00;99.90
21331;DHT22;10824;51.632;4.950;2022-12-18T18:07:05;0.00;99.90
21331;DHT22;10824;51.632;4.950;2022-12-18T18:09:32;0.10;99.90
21331;DHT22;10824;51.632;4.950;2022-12-18T18:11:59;0.10;99.90